Terminal Aerodrome Forecast
Issued by NWS

Current Version | Previous Version | Text Only | Print | Product List | Glossary Off
Versions: 1 2 3 4 5 6 7 8 9 10 11 12 13 14 15 16 17 18 19 20 21 22 23

000
FTUS41 KRLX 230500
TAFCKB
TAF
KCKB 230532Z 2306/2406 VRB03KT P6SM OVC020
     FM230800 29004KT 5SM BR OVC015
     FM231300 30005KT P6SM OVC020
     FM231700 31006KT P6SM BKN035
     FM232200 30006KT P6SM SCT035=

USA.gov is the U.S. government's official web portal to all federal, state and local government web resources and services.